• Join FlightAware (Why Join?)
  • Login
  • US Flag 
12:26PM EDT


 

Airport Tracker/Info


-or-


 

Live Flight TrackerFlight Track Log ✈ PDT4226 ✈ 15-Oct-2013 ✈ KPHL - KBGM

Flight Track Log - Related Links

Times and Time Zones

All times are in EDT time to prevent confusion due to time zone crossing. See the PDT4226 flight status page for this flight to view local times or setup timezone preferences in your user account.

Time Position Orientation Groundspeed Altitude Reporting Facility
EDT Latitude Longitude Course Direction KTS MPH feet Rate Location/Type
12:18PM 39.8833 -75.2000 311° West 123 142 700  Level Philadelphia TRACON
12:19PM 39.9167 -75.1667 37° Northeast 142 163 2,500 1,260 Climbing Philadelphia TRACON
12:20PM 39.9500 -75.1833 339° North 151 174 3,600 1,440 Climbing Philadelphia TRACON
12:21PM 40.0975 -75.3098 North  Level Estimated
12:21PM 40.0000 -75.2000 346° North 151 174 5,300  Level Philadelphia TRACON
12:22PM 40.1725 -75.3328 North  Level Estimated
12:22PM 40.0333 -75.2333 323° Northwest 150 173 6,800  Level Philadelphia TRACON
12:23PM 40.2476 -75.3560 311° West  Level Estimated
12:23PM 40.0833 -75.2333 360° North 144 166 8,000  Level Philadelphia TRACON
12:24PM 40.1167 -75.2333 360° North 172 198 8,800 600 Climbing Philadelphia TRACON
12:25PM 40.1303 -75.2611 303° West 182 209 9,000 120 Climbing New York Center
12:26PM 40.1461 -75.3356 286° West 208 239 9,000  Level New York Center
12:27PM 40.1642 -75.4075 288° West 229 264 9,000  Level New York Center
12:28PM 40.1942 -75.4908 295° West 229 264 9,000  Level New York Center
12:29PM 40.2206 -75.5606 296° West 239 275 9,100 300 Climbing New York Center
12:30PM 40.2700 -75.6267 314° West 239 275 9,600 720 Climbing New York Center
12:31PM 40.3181 -75.6708 325° Northwest 221 254 10,600 780 Climbing New York Center
12:32PM 40.3692 -75.6989 337° Northwest 202 232 11,200 600 Climbing New York Center
12:33PM 40.4136 -75.7294 332° Northwest 197 227 11,800 600 Climbing New York Center
12:34PM 40.4667 -75.7578 338° Northwest 197 227 12,400 600 Climbing New York Center
12:35PM 40.5236 -75.7892 337° Northwest 197 227 13,100 600 Climbing New York Center
12:36PM 40.5764 -75.8258 332° Northwest 202 232 13,600 420 Climbing New York Center
12:37PM 40.6336 -75.8519 341° North 212 244 14,000 180 Climbing New York Center
12:38PM 40.6842 -75.8858 333° Northwest 219 252 14,000  Level New York Center
12:39PM 40.7428 -75.9258 333° Northwest 230 265 14,000  Level New York Center
12:40PM 40.8061 -75.9581 339° North 240 276 14,000  Level New York Center
12:41PM 40.8731 -75.9989 335° Northwest 240 276 14,000  Level New York Center
12:42PM 40.9336 -76.0419 332° Northwest 240 276 14,000  Level New York Center
12:43PM 40.9928 -76.0714 339° North 250 288 14,000  Level New York Center
12:44PM 41.0581 -76.1039 339° North 250 288 14,000  Level New York Center
12:45PM 41.1269 -76.1450 336° Northwest 250 288 14,000  Level New York Center
12:46PM 41.1897 -76.1831 335° Northwest 250 288 14,000  Level New York Center
12:47PM 41.2553 -76.2078 344° North 250 288 14,000  Level New York Center
12:48PM 41.3181 -76.1989 North 238 274 14,000  Level New York Center
12:49PM 41.3939 -76.1831 North 238 274 14,000  Level New York Center
12:50PM 41.4625 -76.1858 358° North 238 274 14,000  Level New York Center
12:51PM 41.5333 -76.1886 358° North 243 280 14,000  Level New York Center
12:52PM 41.5961 -76.1800 North 249 287 14,000 -300 Level New York Center
12:53PM 41.6672 -76.1744 North 249 287 13,500 -1,020 Descending New York Center
12:54PM 41.7486 -76.1672 North 258 297 12,000 -1,500 Descending New York Center
12:55PM 41.8258 -76.1681 360° North 264 304 10,500 -1,500 Descending New York Center
12:56PM 41.9011 -76.1575 North 269 310 9,100 -1,500 Descending New York Center
12:57PM 41.9681 -76.1489 North 274 315 7,600 -1,560 Descending New York Center
12:58PM 42.0364 -76.1153 20° North 268 308 6,000 -1,620 Descending New York Center
12:59PM 42.0989 -76.0672 30° Northeast 263 303 4,400 -1,200 Descending New York Center
01:00PM 42.1567 -76.0272 27° Northeast 250 288 3,600 -660 Descending New York Center
01:01PM 42.2067 -76.0311 357° North 193 222 3,100 -300 Descending New York Center
01:02PM 42.2514 -76.0517 341° North 180 207 3,000 -300 Descending New York Center
01:03PM 42.2531 -76.0181 86° East 95 109 2,600 -420 Descending New York Center
01:04PM 42.2478 -75.9953 107° East 49 56 2,200 -420 Descending New York Center